Time;durP1;ratioP1;P1;durP2;ratioP2;P2;SDS_P1;SDS_P2;PMS_P1;PMS_P2;Temp;Humidity;BMP_temperature;BMP_pressure;BME280_temperature;BME280_humidity;BME280_pressure;Samples;Min_cycle;Max_cycle;Signal;HPM_P1;HPM_P2
2021/11/25 00:00:10;;;;;;;0.20;0.20;;;;;;;5.34;80.44;101576.94;5076387;28;20115;-68
2021/11/25 00:02:36;;;;;;;0.10;0.10;;;;;;;5.30;79.91;101574.06;5057709;28;20417;-67
2021/11/25 00:05:02;;;;;;;0.30;0.30;;;;;;;5.28;80.49;101560.06;5076154;28;20401;-68
2021/11/25 00:07:28;;;;;;;0.20;0.20;;;;;;;5.27;80.02;101561.75;5059038;28;20275;-68
2021/11/25 00:09:53;;;;;;;0.20;0.20;;;;;;;5.28;79.47;101562.69;5058989;28;20021;-68
2021/11/25 00:12:19;;;;;;;0.53;0.53;;;;;;;5.25;79.95;101558.19;5076255;28;20036;-68
2021/11/25 00:14:44;;;;;;;0.20;0.20;;;;;;;5.25;79.09;101560.78;5075632;28;20043;-68
2021/11/25 00:17:10;;;;;;;0.27;0.27;;;;;;;5.26;78.95;101554.78;5076543;28;20039;-67
2021/11/25 00:19:35;;;;;;;0.57;0.57;;;;;;;5.25;78.97;101557.28;5076018;28;20302;-68
2021/11/25 00:22:01;;;;;;;0.20;0.20;;;;;;;5.23;79.34;101549.38;5076640;28;20056;-67
2021/11/25 00:24:26;;;;;;;0.20;0.20;;;;;;;5.21;79.16;101546.72;5075559;28;20027;-68
2021/11/25 00:26:52;;;;;;;0.27;0.27;;;;;;;5.21;79.47;101545.81;5076204;28;20284;-68
2021/11/25 00:29:17;;;;;;;0.20;0.20;;;;;;;5.22;79.10;101545.00;5076462;28;20024;-69
2021/11/25 00:31:42;;;;;;;0.30;0.30;;;;;;;5.19;79.06;101545.72;5075857;28;20099;-68
2021/11/25 00:34:08;;;;;;;0.20;0.20;;;;;;;5.18;78.55;101543.91;5076499;28;20020;-67
2021/11/25 00:36:33;;;;;;;0.20;0.20;;;;;;;5.19;78.95;101544.81;5075797;28;20012;-67
2021/11/25 00:38:59;;;;;;;0.57;0.57;;;;;;;5.17;78.94;101544.72;5079823;28;20063;-67
2021/11/25 00:41:24;;;;;;;0.20;0.20;;;;;;;5.16;79.01;101537.72;5079672;28;20030;-68
2021/11/25 00:43:50;;;;;;;0.20;0.20;;;;;;;5.19;78.44;101535.34;5079717;28;20063;-68
2021/11/25 00:46:15;;;;;;;0.27;0.27;;;;;;;5.17;78.64;101531.72;5079916;28;20481;-67
2021/11/25 00:48:40;;;;;;;0.30;0.30;;;;;;;5.16;78.92;101532.53;5079574;28;20032;-67
2021/11/25 00:51:06;;;;;;;0.30;0.30;;;;;;;5.14;78.53;101531.56;5079862;28;20021;-68
2021/11/25 00:53:31;;;;;;;0.20;0.20;;;;;;;5.24;77.11;101533.03;5079588;28;20108;-68
2021/11/25 00:55:57;;;;;;;0.20;0.20;;;;;;;5.20;77.65;101531.94;5062230;28;20302;-68
2021/11/25 00:58:22;;;;;;;0.20;0.20;;;;;;;5.17;78.53;101525.66;5079009;28;20386;-67
2021/11/25 01:00:48;;;;;;;0.20;0.20;;;;;;;5.13;77.91;101528.84;5078811;28;20047;-68
2021/11/25 01:03:14;;;;;;;0.20;0.20;;;;;;;5.13;77.92;101532.34;5079272;28;20464;-68
2021/11/25 01:05:39;;;;;;;0.20;0.20;;;;;;;5.16;77.37;101527.34;5076964;28;20044;-68
2021/11/25 01:08:05;;;;;;;0.20;0.20;;;;;;;5.14;77.31;101528.03;5078537;28;20028;-68
2021/11/25 01:10:30;;;;;;;0.20;0.20;;;;;;;5.12;76.67;101530.56;5078172;28;20043;-68
2021/11/25 01:12:56;;;;;;;0.30;0.30;;;;;;;5.11;77.10;101522.69;5078684;28;20099;-66
2021/11/25 01:15:29;;;;;;;0.40;0.40;;;;;;;5.09;77.76;101517.38;5078183;28;20110;-67
2021/11/25 01:18:02;;;;;;;0.20;0.20;;;;;;;5.07;76.57;101521.59;5078938;28;20032;-68
2021/11/25 01:20:27;;;;;;;0.20;0.20;;;;;;;5.07;77.99;101517.31;5078877;28;20032;-68
2021/11/25 01:22:54;;;;;;;0.20;0.20;;;;;;;5.04;77.64;101514.50;5079281;28;20029;-69
2021/11/25 01:25:23;;;;;;;0.30;0.30;;;;;;;5.04;77.37;101511.03;5061876;28;20036;-68
2021/11/25 01:27:58;;;;;;;0.20;0.20;;;;;;;5.04;77.13;101518.81;5079322;28;20056;-68
2021/11/25 01:30:24;;;;;;;0.60;0.60;;;;;;;5.02;77.38;101513.53;5062190;28;20028;-68
2021/11/25 01:32:51;;;;;;;0.27;0.27;;;;;;;5.06;77.24;101512.88;5062253;28;20290;-68
2021/11/25 01:35:17;;;;;;;0.20;0.20;;;;;;;5.04;77.37;101519.69;5043661;28;20071;-68
2021/11/25 01:37:43;;;;;;;0.20;0.20;;;;;;;5.03;76.73;101517.91;5061728;28;20052;-68
2021/11/25 01:40:11;;;;;;;0.30;0.30;;;;;;;5.07;76.53;101517.31;5078889;28;20031;-68
2021/11/25 01:42:40;;;;;;;0.43;0.43;;;;;;;5.07;76.76;101513.81;5079035;28;20028;-68
2021/11/25 01:45:06;;;;;;;0.20;0.20;;;;;;;5.06;77.24;101518.09;5061486;28;20063;-69
2021/11/25 01:47:31;;;;;;;0.40;0.40;;;;;;;5.06;77.79;101515.50;5061587;28;20020;-68
2021/11/25 01:49:57;;;;;;;0.30;0.30;;;;;;;5.05;77.79;101510.22;5060886;28;20024;-67
2021/11/25 01:52:22;;;;;;;0.30;0.30;;;;;;;5.05;77.67;101508.50;5079119;28;20116;-68
2021/11/25 01:54:48;;;;;;;0.23;0.23;;;;;;;5.05;78.51;101500.72;5060495;28;20326;-68
2021/11/25 01:57:13;;;;;;;0.20;0.20;;;;;;;5.03;77.75;101507.53;5078416;28;20288;-68
2021/11/25 01:59:38;;;;;;;0.20;0.20;;;;;;;5.01;78.75;101496.16;5078467;28;20061;-68
2021/11/25 02:02:06;;;;;;;0.30;0.30;;;;;;;5.03;79.03;101485.84;5079041;28;20381;-68
2021/11/25 02:04:31;;;;;;;0.20;0.20;;;;;;;5.04;78.99;101492.84;5078643;28;20020;-67
2021/11/25 02:06:56;;;;;;;0.27;0.27;;;;;;;5.03;79.76;101480.66;5078441;28;20139;-69
2021/11/25 02:09:22;;;;;;;0.10;0.10;;;;;;;5.03;79.80;101483.25;5077920;28;20445;-68
2021/11/25 02:11:48;;;;;;;0.20;0.20;;;;;;;5.02;79.06;101481.47;5078531;28;20055;-68
2021/11/25 02:14:13;;;;;;;0.20;0.20;;;;;;;5.01;79.32;101488.38;5078634;28;20055;-69
2021/11/25 02:16:39;;;;;;;0.20;0.20;;;;;;;5.00;79.43;101472.69;5078048;28;20036;-68
2021/11/25 02:19:06;;;;;;;0.20;0.20;;;;;;;5.00;78.86;101476.19;5078597;28;20024;-68
2021/11/25 02:21:31;;;;;;;0.30;0.30;;;;;;;4.99;79.59;101473.50;5059870;28;20358;-67
2021/11/25 02:23:57;;;;;;;0.10;0.10;;;;;;;4.98;80.17;101470.00;5078687;28;20111;-67
2021/11/25 02:26:22;;;;;;;1.40;0.63;;;;;;;4.97;81.77;101469.91;5060385;28;20057;-66
2021/11/25 02:28:48;;;;;;;0.20;0.20;;;;;;;4.94;81.31;101468.03;5078475;28;20111;-66
2021/11/25 02:31:13;;;;;;;0.27;0.27;;;;;;;4.93;81.05;101469.72;5078647;28;20028;-66
2021/11/25 02:33:41;;;;;;;0.20;0.20;;;;;;;4.89;81.13;101461.66;5078490;28;20306;-66
2021/11/25 02:36:06;;;;;;;0.20;0.20;;;;;;;4.88;81.15;101460.75;5060598;28;20035;-66
2021/11/25 02:38:32;;;;;;;0.20;0.20;;;;;;;4.86;82.34;101462.34;5078193;28;20379;-66
2021/11/25 02:40:57;;;;;;;0.20;0.20;;;;;;;4.86;82.66;101459.75;5078552;28;20087;-65
2021/11/25 02:43:25;;;;;;;0.20;0.20;;;;;;;4.85;83.02;101452.78;5077782;28;20051;-65
2021/11/25 02:45:59;;;;;;;0.30;0.30;;;;;;;4.81;83.11;101453.41;5078080;28;20378;-66
2021/11/25 02:48:53;;;;;;;0.20;0.20;;;;;;;4.78;82.99;101442.81;5077895;28;20066;-66
2021/11/25 02:51:21;;;;;;;0.57;0.57;;;;;;;4.78;82.96;101442.81;5074119;28;20047;-66
2021/11/25 02:53:47;;;;;;;0.10;0.10;;;;;;;4.75;83.71;101442.63;5060182;28;20039;-66
2021/11/25 02:56:15;;;;;;;0.10;0.10;;;;;;;4.72;83.35;101439.88;5078229;28;20027;-65
2021/11/25 02:58:42;;;;;;;0.20;0.20;;;;;;;4.71;84.01;101444.13;5077955;28;20424;-66
2021/11/25 03:01:19;;;;;;;0.10;0.10;;;;;;;4.68;84.00;101441.38;5076798;28;20043;-65
2021/11/25 03:03:45;;;;;;;0.70;0.50;;;;;;;4.64;83.66;101440.28;5077785;28;20454;-66
2021/11/25 03:06:11;;;;;;;0.10;0.10;;;;;;;4.66;84.26;101432.56;5077398;28;20107;-65
2021/11/25 03:08:36;;;;;;;0.10;0.10;;;;;;;4.66;84.76;101433.47;5077499;28;20028;-65
2021/11/25 03:11:07;;;;;;;0.77;0.77;;;;;;;4.66;84.47;101429.97;5077201;28;20048;-67
2021/11/25 03:13:34;;;;;;;0.27;0.27;;;;;;;4.63;84.43;101422.94;5077557;28;20025;-66
2021/11/25 03:15:59;;;;;;;0.10;0.10;;;;;;;4.62;84.45;101434.06;5077458;28;20103;-66
2021/11/25 03:18:24;;;;;;;0.10;0.10;;;;;;;4.61;84.58;101427.09;5077493;28;20055;-66
2021/11/25 03:20:53;;;;;;;0.50;0.50;;;;;;;4.62;84.76;101420.22;5060298;28;20291;-67
2021/11/25 03:23:21;;;;;;;0.10;0.10;;;;;;;4.62;84.68;101422.81;5077182;28;20045;-67
2021/11/25 03:25:48;;;;;;;0.17;0.17;;;;;;;4.63;85.05;101427.22;5060081;28;20039;-67
2021/11/25 03:28:14;;;;;;;0.20;0.20;;;;;;;4.60;84.89;101417.53;5077536;28;20379;-66
2021/11/25 03:30:40;;;;;;;0.10;0.10;;;;;;;4.59;84.81;101415.75;5075693;28;20397;-66
2021/11/25 03:33:07;;;;;;;0.10;0.10;;;;;;;4.58;84.85;101413.94;5059684;28;20395;-66
2021/11/25 03:35:33;;;;;;;0.10;0.10;;;;;;;4.59;85.20;101410.56;5075817;28;20122;-66
2021/11/25 03:37:59;;;;;;;0.10;0.10;;;;;;;4.60;85.62;101411.47;5077321;28;20028;-66
2021/11/25 03:40:24;;;;;;;0.00;0.00;;;;;;;4.60;85.45;101414.06;5077243;28;20099;-66
2021/11/25 03:42:52;;;;;;;0.03;0.03;;;;;;;4.60;85.16;101403.69;5076928;28;20251;-66
2021/11/25 03:45:18;;;;;;;0.10;0.10;;;;;;;4.59;86.16;101407.97;5060055;28;20036;-67
2021/11/25 03:47:45;;;;;;;0.10;0.10;;;;;;;4.57;85.67;101396.59;5077213;28;20375;-67
2021/11/25 03:50:11;;;;;;;0.80;0.80;;;;;;;4.57;85.76;101396.59;5076245;28;20036;-66
2021/11/25 03:52:36;;;;;;;0.10;0.10;;;;;;;4.56;85.90;101402.59;5076557;28;20086;-66
2021/11/25 03:55:04;;;;;;;0.10;0.10;;;;;;;4.55;85.93;101403.41;5077158;28;20322;-66
2021/11/25 03:57:29;;;;;;;0.20;0.20;;;;;;;4.56;85.98;101405.19;5076796;28;20283;-66
2021/11/25 03:59:54;;;;;;;0.10;0.10;;;;;;;4.56;86.07;101407.78;5076744;28;20034;-66
2021/11/25 04:02:21;;;;;;;0.10;0.10;;;;;;;4.56;86.19;101401.69;5076906;28;20099;-66
2021/11/25 04:04:47;;;;;;;0.10;0.10;;;;;;;4.56;86.43;101402.59;5076206;28;20035;-66
2021/11/25 04:07:12;;;;;;;0.23;0.23;;;;;;;4.58;86.44;101393.19;5059684;28;20028;-66
2021/11/25 04:09:38;;;;;;;0.10;0.10;;;;;;;4.58;86.30;101388.00;5076060;28;20269;-66
2021/11/25 04:12:04;;;;;;;0.10;0.10;;;;;;;4.56;86.24;101384.44;5058852;28;20024;-66
2021/11/25 04:14:29;;;;;;;0.10;0.10;;;;;;;4.56;86.50;101384.44;5058818;28;20035;-65
2021/11/25 04:16:55;;;;;;;0.17;0.17;;;;;;;4.57;86.51;101383.63;5076992;28;20020;-67
2021/11/25 04:19:20;;;;;;;0.10;0.10;;;;;;;4.56;86.38;101375.75;5076895;28;20021;-66
2021/11/25 04:21:46;;;;;;;0.10;0.10;;;;;;;4.56;86.54;101380.94;5076309;28;20029;-67
2021/11/25 04:24:12;;;;;;;0.07;0.07;;;;;;;4.55;86.31;101382.66;5076548;28;20134;-66
2021/11/25 04:26:38;;;;;;;0.10;0.10;;;;;;;4.52;86.45;101388.53;5059090;28;20124;-66
2021/11/25 04:29:03;;;;;;;0.17;0.17;;;;;;;4.50;86.58;101392.72;5076481;28;20048;-66
2021/11/25 04:36:57;;;;;;;0.00;0.00;;;;;;;4.54;86.17;101388.59;5076703;28;20043;-67
2021/11/25 04:39:22;;;;;;;0.33;0.27;;;;;;;4.51;86.38;101384.16;5076166;28;20111;-66
2021/11/25 04:41:47;;;;;;;0.10;0.10;;;;;;;4.49;86.54;101379.66;5058621;28;20123;-67
2021/11/25 04:44:13;;;;;;;0.00;0.00;;;;;;;4.47;86.43;101387.34;5076275;28;20103;-66
2021/11/25 04:46:39;;;;;;;0.00;0.00;;;;;;;4.47;86.34;101387.34;5076038;28;20047;-67
2021/11/25 04:49:05;;;;;;;0.10;0.10;;;;;;;4.48;86.43;101377.88;5059092;28;20387;-66
2021/11/25 04:51:31;;;;;;;0.10;0.10;;;;;;;4.48;86.64;101370.09;5075532;28;20033;-68
2021/11/25 04:53:57;;;;;;;0.10;0.10;;;;;;;4.47;86.61;101371.78;5076416;28;20028;-66
2021/11/25 04:56:22;;;;;;;0.10;0.10;;;;;;;4.49;86.55;101374.47;5076339;28;20028;-66
2021/11/25 04:58:47;;;;;;;0.10;0.10;;;;;;;4.51;86.41;101370.28;5076241;28;20029;-67
2021/11/25 05:01:13;;;;;;;0.10;0.10;;;;;;;4.50;86.22;101366.78;5076532;28;20020;-65
2021/11/25 05:03:39;;;;;;;0.03;0.03;;;;;;;4.52;86.69;101369.47;5076187;28;20028;-67
2021/11/25 05:06:04;;;;;;;0.10;0.10;;;;;;;4.52;86.39;101356.50;5075463;28;20051;-66
2021/11/25 05:08:30;;;;;;;0.03;0.03;;;;;;;4.52;86.47;101357.41;5076185;28;20024;-66
2021/11/25 05:10:55;;;;;;;0.10;0.10;;;;;;;4.54;86.53;101353.19;5076195;28;20075;-66
2021/11/25 05:13:20;;;;;;;0.10;0.10;;;;;;;4.55;86.58;101359.31;5076249;28;20081;-66
2021/11/25 05:15:46;;;;;;;0.10;0.10;;;;;;;4.57;86.61;101354.19;5058754;28;20028;-66
2021/11/25 05:18:11;;;;;;;0.10;0.10;;;;;;;4.58;87.07;101350.78;5058272;28;20123;-65
2021/11/25 05:20:37;;;;;;;0.10;0.10;;;;;;;4.59;86.75;101347.38;5075663;28;20021;-65
2021/11/25 05:23:02;;;;;;;0.10;0.10;;;;;;;4.57;86.61;101347.31;5076336;28;20016;-66
2021/11/25 05:25:28;;;;;;;0.10;0.10;;;;;;;4.56;86.57;101350.72;5062000;28;20064;-66
2021/11/25 05:27:53;;;;;;;0.20;0.20;;;;;;;4.52;86.69;101347.03;5079887;28;20052;-66
2021/11/25 05:30:20;;;;;;;0.00;0.00;;;;;;;4.51;87.01;101352.13;5079592;28;20039;-66
2021/11/25 05:32:46;;;;;;;0.10;0.10;;;;;;;4.49;86.97;101357.19;5079508;28;20032;-66
2021/11/25 05:35:14;;;;;;;0.10;0.10;;;;;;;4.48;86.89;101363.19;5061260;28;20036;-66
2021/11/25 05:37:40;;;;;;;0.00;0.00;;;;;;;4.50;86.93;101364.19;5079301;28;20031;-66
2021/11/25 05:40:07;;;;;;;0.10;0.10;;;;;;;4.50;86.85;101363.31;5062135;28;20029;-65
2021/11/25 05:42:35;;;;;;;0.00;0.00;;;;;;;4.50;87.10;101358.13;5061869;28;20032;-66
2021/11/25 05:45:00;;;;;;;0.00;0.00;;;;;;;4.51;87.04;101355.63;5079227;28;20107;-66
2021/11/25 05:47:26;;;;;;;0.10;0.10;;;;;;;4.53;87.07;101355.69;5079160;28;20111;-66
2021/11/25 05:49:51;;;;;;;0.00;0.00;;;;;;;4.54;87.14;101357.47;5078865;28;20028;-65
2021/11/25 05:52:16;;;;;;;0.00;0.00;;;;;;;4.54;87.17;101358.38;5078687;28;20150;-66
2021/11/25 05:54:42;;;;;;;0.10;0.10;;;;;;;4.56;86.98;101358.50;5061278;28;20047;-65
2021/11/25 05:57:07;;;;;;;0.10;0.10;;;;;;;4.59;86.79;101366.44;5078927;28;20024;-66
2021/11/25 05:59:33;;;;;;;0.10;0.10;;;;;;;4.58;86.86;101356.88;5078894;28;20027;-66
2021/11/25 06:01:58;;;;;;;0.00;0.00;;;;;;;4.59;86.85;101363.84;5061778;28;20031;-66
2021/11/25 06:04:24;;;;;;;0.23;0.23;;;;;;;4.59;86.59;101353.47;5079378;28;20056;-67
2021/11/25 06:06:49;;;;;;;0.07;0.07;;;;;;;4.60;86.86;101351.81;5078184;28;20025;-66
2021/11/25 06:09:14;;;;;;;0.00;0.00;;;;;;;4.61;86.97;101356.19;5078278;28;20371;-66
2021/11/25 06:11:40;;;;;;;0.00;0.00;;;;;;;4.60;87.07;101350.09;5078655;28;20044;-66
2021/11/25 06:14:05;;;;;;;0.10;0.10;;;;;;;4.61;86.77;101345.81;5061924;28;20134;-66
2021/11/25 06:16:30;;;;;;;0.10;0.10;;;;;;;4.60;86.95;101336.22;5078091;28;20371;-66
2021/11/25 06:18:56;;;;;;;0.10;0.10;;;;;;;4.61;87.09;101341.50;5078930;28;20032;-65
2021/11/25 06:21:21;;;;;;;0.10;0.10;;;;;;;4.62;87.14;101345.00;5077871;28;20081;-65
2021/11/25 06:23:46;;;;;;;0.07;0.07;;;;;;;4.63;87.08;101341.59;5077488;28;20089;-66
2021/11/25 06:26:12;;;;;;;0.10;0.10;;;;;;;4.61;87.15;101344.09;5060108;28;20162;-66
2021/11/25 06:28:37;;;;;;;0.10;0.10;;;;;;;4.61;86.90;101336.31;5059932;28;20115;-66
2021/11/25 06:31:02;;;;;;;0.10;0.10;;;;;;;4.60;86.98;101331.91;5078174;28;20024;-65
2021/11/25 06:33:28;;;;;;;0.10;0.10;;;;;;;4.60;87.03;101334.50;5078238;28;20039;-65
2021/11/25 06:35:53;;;;;;;0.10;0.10;;;;;;;4.59;87.08;101330.13;5076649;28;20347;-65
2021/11/25 06:38:19;;;;;;;0.10;0.10;;;;;;;4.61;87.28;101332.84;5076744;28;20032;-65
2021/11/25 06:40:46;;;;;;;0.10;0.10;;;;;;;4.60;86.83;101329.31;5076756;28;20020;-65
2021/11/25 06:43:12;;;;;;;0.07;0.07;;;;;;;4.62;87.05;101324.25;5058878;28;20387;-65
2021/11/25 06:45:38;;;;;;;0.00;0.00;;;;;;;4.63;87.08;101332.13;5076679;28;20386;-67
2021/11/25 06:48:05;;;;;;;0.10;0.10;;;;;;;4.64;87.36;101323.53;5060887;28;20027;-66
2021/11/25 06:50:31;;;;;;;0.10;0.10;;;;;;;4.65;87.89;101327.91;5077706;28;20043;-66
2021/11/25 06:52:56;;;;;;;0.07;0.07;;;;;;;4.67;87.46;101326.31;5060826;28;20105;-66
2021/11/25 06:55:22;;;;;;;0.10;0.10;;;;;;;4.70;87.32;101319.50;5078101;28;20027;-66
2021/11/25 06:57:50;;;;;;;0.10;0.10;;;;;;;4.72;87.11;101323.09;5077174;28;20056;-66
2021/11/25 07:00:18;;;;;;;0.07;0.07;;;;;;;4.74;87.38;101327.56;5077140;28;20414;-66
2021/11/25 07:02:43;;;;;;;0.00;0.00;;;;;;;4.77;87.42;101324.25;5043919;28;20036;-66
2021/11/25 07:05:09;;;;;;;0.00;0.00;;;;;;;4.79;87.22;101323.56;5060114;28;20058;-66
2021/11/25 07:07:36;;;;;;;0.10;0.10;;;;;;;4.81;87.46;101324.53;5077757;28;20074;-68
2021/11/25 07:10:04;;;;;;;0.03;0.03;;;;;;;4.83;87.59;101322.03;5077663;28;20027;-65
2021/11/25 07:12:30;;;;;;;0.00;0.00;;;;;;;4.89;87.29;101316.31;5077810;28;20021;-66
2021/11/25 07:14:55;;;;;;;0.10;0.10;;;;;;;4.89;87.26;101321.50;5077739;28;20287;-66
2021/11/25 07:17:21;;;;;;;0.10;0.10;;;;;;;4.90;87.30;101320.69;5060612;28;20034;-67
2021/11/25 07:19:46;;;;;;;0.10;0.10;;;;;;;4.92;87.51;101316.50;5076142;28;20044;-66
2021/11/25 07:22:12;;;;;;;0.00;0.00;;;;;;;4.91;87.50;101320.78;5077799;28;20056;-67
2021/11/25 07:24:37;;;;;;;0.00;0.00;;;;;;;4.94;87.48;101330.47;5077274;28;20025;-66
2021/11/25 07:27:03;;;;;;;0.00;0.00;;;;;;;4.94;87.37;101325.28;5060412;28;20054;-66
2021/11/25 07:29:29;;;;;;;0.10;0.10;;;;;;;4.95;87.54;101327.06;5077044;28;20024;-66
2021/11/25 07:31:55;;;;;;;0.00;0.00;;;;;;;4.97;87.81;101327.16;5077501;28;20081;-65
2021/11/25 07:34:20;;;;;;;0.10;0.10;;;;;;;4.98;87.66;101329.81;5077490;28;20099;-66
2021/11/25 07:36:46;;;;;;;0.20;0.20;;;;;;;5.01;87.81;101337.81;5058653;28;20036;-66
2021/11/25 07:39:11;;;;;;;0.10;0.10;;;;;;;5.02;87.40;101330.91;5077606;28;20090;-66
2021/11/25 07:41:38;;;;;;;0.00;0.00;;;;;;;5.03;87.21;101336.19;5077066;28;20023;-66
2021/11/25 07:44:05;;;;;;;0.00;0.00;;;;;;;5.06;87.63;101336.34;5077443;28;20021;-66
2021/11/25 07:46:30;;;;;;;0.10;0.10;;;;;;;5.10;87.72;101340.03;5076776;28;20036;-66
2021/11/25 07:48:58;;;;;;;0.10;0.10;;;;;;;5.13;87.56;101340.22;5059600;28;20051;-66
2021/11/25 07:51:23;;;;;;;0.20;0.20;;;;;;;5.15;87.69;101340.28;5076321;28;20418;-66
2021/11/25 07:53:48;;;;;;;0.10;0.10;;;;;;;5.17;87.37;101337.00;5076973;28;20060;-66
2021/11/25 07:56:14;;;;;;;0.10;0.10;;;;;;;5.19;87.77;101338.00;5076933;28;20371;-67
2021/11/25 07:58:39;;;;;;;0.10;0.10;;;;;;;5.22;87.84;101327.78;5076767;28;20024;-66
2021/11/25 08:01:05;;;;;;;0.00;0.00;;;;;;;5.26;87.56;101334.03;5043295;28;20069;-67
2021/11/25 08:03:30;;;;;;;0.10;0.10;;;;;;;5.28;87.71;101331.56;5058733;28;20056;-67
2021/11/25 08:05:55;;;;;;;0.00;0.00;;;;;;;5.31;87.93;101329.13;5076376;28;20074;-66
2021/11/25 08:08:21;;;;;;;0.00;0.00;;;;;;;5.33;88.00;101332.69;5077002;28;20067;-66
2021/11/25 08:10:46;;;;;;;0.10;0.10;;;;;;;5.35;87.94;101337.16;5076795;28;20024;-66
2021/11/25 08:13:12;;;;;;;0.00;0.00;;;;;;;5.39;88.13;101338.25;5076822;28;20097;-66
2021/11/25 08:15:37;;;;;;;0.00;0.00;;;;;;;5.42;88.00;101338.41;5058630;28;20036;-66
2021/11/25 08:18:03;;;;;;;0.07;0.07;;;;;;;5.45;88.13;101342.88;5059515;28;20032;-67
2021/11/25 08:20:28;;;;;;;0.00;0.00;;;;;;;5.48;88.08;101349.16;5057542;28;20031;-66
2021/11/25 08:22:54;;;;;;;0.00;0.00;;;;;;;5.52;88.23;101344.16;5076050;28;20028;-66
2021/11/25 08:25:21;;;;;;;0.43;0.43;;;;;;;5.54;88.19;101348.59;5075393;28;20108;-67
2021/11/25 08:27:47;;;;;;;0.00;0.00;;;;;;;5.60;88.18;101354.16;5075786;28;20023;-67
2021/11/25 08:30:14;;;;;;;0.00;0.00;;;;;;;5.63;88.11;101354.31;5058955;28;20095;-67
2021/11/25 08:32:41;;;;;;;0.07;0.07;;;;;;;5.70;87.72;101349.47;5076223;28;20020;-68
2021/11/25 08:35:07;;;;;;;0.00;0.00;;;;;;;5.77;88.00;101349.00;5076344;28;20016;-67
2021/11/25 08:37:33;;;;;;;0.00;0.00;;;;;;;5.81;88.09;101351.00;5076696;28;20070;-67
2021/11/25 08:39:59;;;;;;;0.00;0.00;;;;;;;5.87;88.01;101345.22;5075932;28;20414;-67
2021/11/25 08:42:24;;;;;;;0.00;0.00;;;;;;;5.91;88.00;101344.56;5076403;28;20055;-67
2021/11/25 08:44:50;;;;;;;0.10;0.10;;;;;;;5.93;87.91;101349.88;5076493;28;20059;-67
2021/11/25 08:47:15;;;;;;;0.00;0.00;;;;;;;5.94;87.87;101349.06;5076744;28;20048;-68
2021/11/25 08:49:40;;;;;;;0.00;0.00;;;;;;;5.95;87.82;101343.03;5075156;28;20459;-67
2021/11/25 08:52:06;;;;;;;0.00;0.00;;;;;;;5.96;87.82;101343.13;5076698;28;20035;-67
2021/11/25 08:54:31;;;;;;;0.10;0.10;;;;;;;5.97;87.98;101341.44;5076508;28;20016;-67
2021/11/25 08:56:58;;;;;;;0.10;0.10;;;;;;;5.98;87.84;101344.09;5058694;28;20140;-68
2021/11/25 08:59:23;;;;;;;0.10;0.10;;;;;;;6.08;88.18;101345.56;5061866;28;20055;-68
2021/11/25 09:01:49;;;;;;;0.00;0.00;;;;;;;6.11;88.09;101344.84;5061756;28;20044;-67
2021/11/25 09:04:14;;;;;;;0.10;0.10;;;;;;;6.13;87.96;101345.81;5080337;28;20028;-67
2021/11/25 09:06:40;;;;;;;0.00;0.00;;;;;;;6.15;88.04;101346.78;5079414;28;20294;-67
2021/11/25 09:09:06;;;;;;;0.10;0.10;;;;;;;6.16;87.99;101353.78;5062212;28;20033;-67
2021/11/25 09:11:33;;;;;;;0.00;0.00;;;;;;;6.17;87.83;101346.03;5080036;28;20032;-67
2021/11/25 09:13:58;;;;;;;0.00;0.00;;;;;;;6.20;88.07;101353.13;5080227;28;20021;-67
2021/11/25 09:16:24;;;;;;;0.00;0.00;;;;;;;6.23;88.21;101355.00;5079653;28;20184;-67
2021/11/25 09:18:49;;;;;;;0.10;0.10;;;;;;;6.24;87.95;101357.69;5079890;28;20028;-66
2021/11/25 09:21:14;;;;;;;0.00;0.00;;;;;;;6.26;87.99;101362.97;5079032;28;20033;-67
2021/11/25 09:23:40;;;;;;;0.00;0.00;;;;;;;6.26;88.14;101363.88;5079757;28;20024;-68
2021/11/25 09:26:05;;;;;;;0.00;0.00;;;;;;;6.27;87.93;101363.06;5079757;28;20028;-68
2021/11/25 09:28:30;;;;;;;0.00;0.00;;;;;;;6.28;88.08;101359.63;5079655;28;20036;-68
2021/11/25 09:30:57;;;;;;;0.00;0.00;;;;;;;6.31;88.17;101359.78;5062423;28;20036;-67
2021/11/25 09:33:22;;;;;;;0.00;0.00;;;;;;;6.35;88.28;101365.19;5062476;28;20055;-68
2021/11/25 09:35:48;;;;;;;0.10;0.10;;;;;;;6.37;88.08;101372.25;5061680;28;20021;-67
2021/11/25 09:38:14;;;;;;;0.00;0.00;;;;;;;6.40;87.96;101368.91;5079132;28;20371;-68
2021/11/25 09:40:42;;;;;;;0.00;0.00;;;;;;;6.45;87.34;101372.66;5079370;28;20031;-68
2021/11/25 09:43:10;;;;;;;0.00;0.00;;;;;;;6.48;87.00;101366.72;5062495;28;20017;-67
2021/11/25 09:45:38;;;;;;;0.00;0.00;;;;;;;6.48;87.14;101362.44;5061631;28;20272;-67
2021/11/25 09:48:09;;;;;;;0.00;0.00;;;;;;;6.48;86.96;101357.22;5079018;28;20101;-67
2021/11/25 09:50:37;;;;;;;0.10;0.10;;;;;;;6.50;87.02;101367.69;5078571;28;20106;-66
2021/11/25 09:53:05;;;;;;;0.00;0.00;;;;;;;6.48;86.56;101358.94;5062244;28;20398;-66
2021/11/25 09:55:31;;;;;;;0.10;0.10;;;;;;;6.51;86.12;101366.88;5079257;28;20021;-66
2021/11/25 09:57:57;;;;;;;0.00;0.00;;;;;;;6.63;86.62;101358.84;5078950;28;20021;-66
2021/11/25 10:00:24;;;;;;;0.10;0.10;;;;;;;6.76;86.24;101363.88;5078971;28;20394;-67
2021/11/25 10:02:50;;;;;;;0.10;0.10;;;;;;;6.87;85.15;101367.91;5079221;28;20032;-67
2021/11/25 10:05:15;;;;;;;0.00;0.00;;;;;;;6.92;82.50;101373.38;5078917;28;20051;-66
2021/11/25 10:07:41;;;;;;;0.10;0.10;;;;;;;6.98;82.10;101365.88;5061733;28;20040;-65
2021/11/25 10:10:28;;;;;;;0.10;0.10;;;;;;;6.96;82.90;101374.41;5077443;28;20296;-65
2021/11/25 10:13:11;;;;;;;0.10;0.10;;;;;;;7.06;82.28;101373.19;5055216;28;20039;-65
2021/11/25 10:15:38;;;;;;;0.10;0.10;;;;;;;7.27;81.45;101371.69;5062102;28;20094;-65
2021/11/25 10:18:07;;;;;;;0.20;0.20;;;;;;;7.41;80.30;101372.38;5058860;28;20283;-65
2021/11/25 10:20:35;;;;;;;0.10;0.10;;;;;;;7.70;79.90;101361.59;5040836;28;20017;-65
2021/11/25 10:23:01;;;;;;;0.30;0.30;;;;;;;7.90;77.00;101372.09;5063323;28;20028;-66
2021/11/25 10:25:44;;;;;;;0.23;0.23;;;;;;;8.04;72.08;101367.53;5071180;28;20046;-65
2021/11/25 10:28:31;;;;;;;0.30;0.30;;;;;;;7.96;72.38;101375.88;5078688;28;20056;-65
2021/11/25 10:31:02;;;;;;;0.20;0.20;;;;;;;7.87;70.82;101369.31;5057122;28;20033;-65
2021/11/25 10:33:32;;;;;;;0.47;0.47;;;;;;;7.84;71.07;101375.28;5048544;28;20391;-65
2021/11/25 10:38:45;;;;;;;0.40;0.40;;;;;;;7.70;71.23;101385.06;5041778;28;20037;-65
2021/11/25 10:41:15;;;;;;;0.23;0.23;;;;;;;7.61;71.95;101387.22;5059551;28;20043;-64
2021/11/25 10:43:40;;;;;;;0.30;0.30;;;;;;;7.51;70.89;101378.03;5078074;28;20028;-64
2021/11/25 10:46:06;;;;;;;0.30;0.30;;;;;;;7.42;71.71;101392.41;5077383;28;20299;-64
2021/11/25 10:48:39;;;;;;;0.20;0.20;;;;;;;7.36;72.68;101384.25;5055182;28;20020;-64
2021/11/25 10:51:30;;;;;;;0.40;0.40;;;;;;;7.27;72.73;101383.81;5057003;28;20283;-64
2021/11/25 10:54:05;;;;;;;0.30;0.30;;;;;;;7.22;73.28;101387.91;5072170;28;20030;-64
2021/11/25 10:56:49;;;;;;;0.27;0.27;;;;;;;7.21;72.55;101379.19;5057131;28;20371;-65
2021/11/25 10:59:17;;;;;;;0.20;0.20;;;;;;;7.22;71.74;101385.31;5077805;28;20036;-63
2021/11/25 11:01:49;;;;;;;0.20;0.20;;;;;;;7.22;72.34;101380.97;5072092;28;20021;-64
2021/11/25 11:04:15;;;;;;;0.20;0.20;;;;;;;7.21;72.91;101383.53;5077776;28;20077;-65
2021/11/25 11:06:42;;;;;;;0.30;0.30;;;;;;;7.19;73.00;101395.56;5050791;28;20064;-65
2021/11/25 11:09:28;;;;;;;0.20;0.20;;;;;;;7.19;71.34;101388.66;5077145;28;20415;-65
2021/11/25 11:12:29;;;;;;;0.30;0.30;;;;;;;7.21;71.82;101383.53;5057100;28;20358;-65
2021/11/25 11:15:12;;;;;;;0.20;0.20;;;;;;;7.20;70.58;101385.22;5076000;28;20028;-65
2021/11/25 11:20:23;;;;;;;0.20;0.20;;;;;;;7.27;69.59;101376.91;5077202;28;20315;-64
2021/11/25 11:23:01;;;;;;;0.33;0.33;;;;;;;7.28;70.18;101380.38;5077241;28;20370;-65
2021/11/25 11:25:28;;;;;;;0.40;0.40;;;;;;;7.26;70.09;101369.91;5077168;28;20066;-65
2021/11/25 11:27:56;;;;;;;0.20;0.20;;;;;;;7.31;70.22;101374.44;5077558;28;20096;-65
2021/11/25 11:30:22;;;;;;;0.30;0.30;;;;;;;7.31;70.89;101377.94;5055941;28;20096;-65
2021/11/25 11:32:48;;;;;;;0.20;0.20;;;;;;;7.34;69.29;101379.81;5059174;28;20024;-64
2021/11/25 11:35:15;;;;;;;0.20;0.20;;;;;;;7.33;70.01;101372.81;5071260;28;20024;-66
2021/11/25 11:37:41;;;;;;;0.40;0.40;;;;;;;7.32;70.45;101371.00;5075575;28;20402;-65
2021/11/25 11:40:08;;;;;;;0.20;0.20;;;;;;;7.38;68.89;101367.03;5063991;28;20107;-65
2021/11/25 11:42:35;;;;;;;0.23;0.23;;;;;;;7.42;69.46;101362.84;5058087;28;20032;-66